Flight Track Log - Related Links

Times and Time Zones

All times are in EDT time to prevent confusion due to time zone crossing. See the N72PV flight status page for this flight to view local times or setup timezone preferences in your user account.

Time Position Orientation Groundspeed Altitude Reporting Facility
EDT Latitude Longitude Course Direction KTS MPH feet Rate Location/Type
Tue 05:19:23 PM 47.4851 -122.7700 214° Southwest 85 98 700  Level FlightAware ADS-B
Tue 05:19:30 PM 47.4826 -122.7720 208° Southwest 92 106 800 1,000 Climbing FlightAware ADS-B
Tue 05:19:35 PM 47.4809 -122.7740 218° Southwest 96 110 900 1,200 Climbing FlightAware ADS-B
Tue 05:19:40 PM 47.4790 -122.7750 200° South 97 112 1,000 1,091 Climbing FlightAware ADS-B
Tue 05:19:46 PM 47.4762 -122.7770 206° Southwest 101 116 1,100 1,091 Climbing FlightAware ADS-B
Tue 05:19:51 PM 47.4743 -122.7780 200° South 101 116 1,200 1,333 Climbing FlightAware ADS-B
Tue 05:19:55 PM 47.4725 -122.7800 217° Southwest 104 120 1,300 1,333 Climbing FlightAware ADS-B
Tue 05:20:00 PM 47.4702 -122.7810 196° South 107 123 1,400 667 Climbing FlightAware ADS-B
Tue 05:20:04 PM 47.4682 -122.7820 199° South 110 127 1,400 667 Level FlightAware ADS-B
Tue 05:20:09 PM 47.4661 -122.7830 198° South 112 129 1,500 1,333 Climbing FlightAware ADS-B
Tue 05:20:13 PM 47.4638 -122.7840 196° South 114 131 1,600 1,200 Climbing FlightAware ADS-B
Tue 05:20:19 PM 47.4605 -122.7850 192° South 118 136 1,700 1,000 Climbing FlightAware ADS-B
Tue 05:20:25 PM 47.4575 -122.7860 193° South 119 137 1,800 500 Climbing FlightAware ADS-B
Tue 05:20:31 PM 47.4539 -122.7870 191° South 124 143 1,800 462 Level FlightAware ADS-B
Tue 05:20:38 PM 47.4501 -122.7890 200° South 128 147 1,900 923 Climbing FlightAware ADS-B
Tue 05:20:44 PM 47.4469 -122.7900 192° South 129 148 2,000 750 Climbing FlightAware ADS-B
Tue 05:20:54 PM 47.4410 -122.7920 193° South 131 151 2,100 706 Climbing FlightAware ADS-B
Tue 05:21:01 PM 47.4369 -122.7930 189° South 133 153 2,200 857 Climbing FlightAware ADS-B
Tue 05:21:08 PM 47.4328 -122.7950 198° South 131 151 2,300 923 Climbing FlightAware ADS-B
Tue 05:21:14 PM 47.4291 -122.7970 200° South 129 148 2,400 923 Climbing FlightAware ADS-B
Tue 05:21:21 PM 47.4249 -122.7980 189° South 130 150 2,500 783 Climbing FlightAware ADS-B
Tue 05:21:37 PM 47.4160 -122.8020 197° South 131 151 2,700 889 Climbing FlightAware ADS-B
Tue 05:21:48 PM 47.4093 -122.8040 191° South 132 152 2,900 692 Climbing FlightAware ADS-B
Tue 05:22:03 PM 47.4002 -122.8080 197° South 138 159 3,000 600 Climbing FlightAware ADS-B
Tue 05:22:18 PM 47.3911 -122.8120 197° South 137 158 3,200 900 Climbing FlightAware ADS-B
Tue 05:22:23 PM 47.3881 -122.8140 204° Southwest 136 157 3,300 1,091 Climbing FlightAware ADS-B
Tue 05:22:29 PM 47.3843 -122.8150 190° South 138 159 3,400 667 Climbing FlightAware ADS-B
Tue 05:22:41 PM 47.3770 -122.8180 196° South 139 160 3,500 600 Climbing FlightAware ADS-B
Tue 05:22:49 PM 47.3719 -122.8200 195° South 140 161 3,600 857 Climbing FlightAware ADS-B
Tue 05:22:55 PM 47.3683 -122.8220 201° Southwest 140 161 3,700 571 Climbing FlightAware ADS-B
Tue 05:23:10 PM 47.3589 -122.8270 200° South 141 162 3,800 621 Climbing FlightAware ADS-B
Tue 05:23:24 PM 47.3509 -122.8310 199° South 140 161 4,000 857 Climbing FlightAware ADS-B
Tue 05:23:31 PM 47.3462 -122.8340 203° Southwest 139 160 4,100 632 Climbing FlightAware ADS-B
Tue 05:23:43 PM 47.3388 -122.8370 195° South 142 163 4,200 522 Climbing FlightAware ADS-B
Tue 05:23:54 PM 47.3322 -122.8410 202° Southwest 144 166 4,300 1,000 Climbing FlightAware ADS-B
Tue 05:24:01 PM 47.3278 -122.8430 197° South 141 162 4,500 1,091 Climbing FlightAware ADS-B
Tue 05:24:05 PM 47.3253 -122.8440 195° South 140 161 4,500 375 Level FlightAware ADS-B
Tue 05:24:17 PM 47.3177 -122.8470 195° South 142 163 4,600 571 Climbing FlightAware ADS-B
Tue 05:24:26 PM 47.3118 -122.8500 199° South 144 166 4,700 750 Climbing FlightAware ADS-B
Tue 05:24:33 PM 47.3077 -122.8510 189° South 143 165 4,800 900 Climbing FlightAware ADS-B
Tue 05:24:46 PM 47.2993 -122.8550 198° South 143 165 5,000 632 Climbing FlightAware ADS-B
Tue 05:24:52 PM 47.2954 -122.8560 190° South 144 166 5,000 545 Level FlightAware ADS-B
Tue 05:25:08 PM 47.2849 -122.8590 191° South 147 169 5,200 643 Climbing FlightAware ADS-B
Tue 05:25:20 PM 47.2769 -122.8610 190° South 149 171 5,300 480 Climbing FlightAware ADS-B
Tue 05:25:33 PM 47.2681 -122.8630 189° South 149 171 5,400 545 Climbing FlightAware ADS-B
Tue 05:25:42 PM 47.2616 -122.8650 192° South 149 171 5,500 632 Climbing FlightAware ADS-B
Tue 05:25:52 PM 47.2548 -122.8660 186° South 151 174 5,600 667 Climbing FlightAware ADS-B
Tue 05:26:00 PM 47.2492 -122.8660 180° South 150 173 5,700 667 Climbing FlightAware ADS-B
Tue 05:26:10 PM 47.2423 -122.8670 186° South 148 170 5,800 545 Climbing FlightAware ADS-B
Tue 05:26:22 PM 47.2341 -122.8670 180° South 148 170 5,900 571 Climbing FlightAware ADS-B
Tue 05:26:31 PM 47.2278 -122.8670 180° South 148 170 6,000 750 Climbing FlightAware ADS-B
Tue 05:26:38 PM 47.2234 -122.8670 180° South 148 170 6,100 800 Climbing FlightAware ADS-B
Tue 05:26:46 PM 47.2176 -122.8680 187° South 148 170 6,200 522 Climbing FlightAware ADS-B
Tue 05:27:01 PM 47.2072 -122.8690 184° South 147 169 6,300 522 Climbing FlightAware ADS-B
Tue 05:27:09 PM 47.2023 -122.8700 188° South 146 168 6,400 857 Climbing FlightAware ADS-B
Tue 05:27:15 PM 47.1983 -122.8710 190° South 147 169 6,500 500 Climbing FlightAware ADS-B
Tue 05:27:21 PM 47.1942 -122.8710 180° South 146 168 6,500 316 Level FlightAware ADS-B
Tue 05:27:34 PM 47.1854 -122.8730 189° South 147 169 6,600 632 Climbing FlightAware ADS-B
Tue 05:27:40 PM 47.1811 -122.8740 189° South 147 169 6,700 500 Climbing FlightAware ADS-B
Tue 05:27:46 PM 47.1770 -122.8750 189° South 146 168 6,700 375 Level FlightAware ADS-B
Tue 05:27:56 PM 47.1704 -122.8760 186° South 144 166 6,800 667 Climbing FlightAware ADS-B
Tue 05:28:04 PM 47.1652 -122.8760 180° South 145 167 6,900 600 Climbing FlightAware ADS-B
Tue 05:28:16 PM 47.1569 -122.8770 185° South 145 167 7,000 692 Climbing FlightAware ADS-B
Tue 05:28:30 PM 47.1477 -122.8780 184° South 143 165 7,200 545 Climbing FlightAware ADS-B
Tue 05:28:38 PM 47.1427 -122.8780 180° South 143 165 7,200 375 Level FlightAware ADS-B
Tue 05:28:46 PM 47.1369 -122.8790 187° South 146 168 7,300 333 Climbing FlightAware ADS-B
Tue 05:28:56 PM 47.1305 -122.8800 186° South 149 171 7,300  Level FlightAware ADS-B
Tue 05:29:01 PM 47.1268 -122.8810 190° South 151 174 7,300  Level FlightAware ADS-B
Tue 05:29:11 PM 47.1202 -122.8820 186° South 154 177 7,300  Level FlightAware ADS-B
Tue 05:29:17 PM 47.1157 -122.8830 189° South 156 180 7,300  Level FlightAware ADS-B
Tue 05:29:23 PM 47.1113 -122.8830 180° South 158 182 7,300  Level FlightAware ADS-B
Tue 05:29:37 PM 47.1011 -122.8850 188° South 161 185 7,300  Level FlightAware ADS-B
Tue 05:29:49 PM 47.0921 -122.8860 184° South 164 189 7,300  Level FlightAware ADS-B
Tue 05:30:04 PM 47.0805 -122.8870 183° South 165 190 7,300  Level FlightAware ADS-B
Tue 05:30:14 PM 47.0733 -122.8880 185° South 165 190 7,300  Level FlightAware ADS-B
Tue 05:30:24 PM 47.0655 -122.8890 185° South 164 189 7,300  Level FlightAware ADS-B
Tue 05:30:39 PM 47.0540 -122.8910 187° South 164 189 7,300  Level FlightAware ADS-B
Tue 05:30:55 PM 47.0419 -122.8930 186° South 165 190 7,300  Level FlightAware ADS-B
Tue 05:31:13 PM 47.0285 -122.8940 183° South 165 190 7,300  Level FlightAware ADS-B
Tue 05:31:28 PM 47.0168 -122.8960 187° South 165 190 7,300  Level FlightAware ADS-B
Tue 05:31:44 PM 47.0051 -122.8970 183° South 166 191 7,300  Level FlightAware ADS-B
Tue 05:31:51 PM 46.9993 -122.8980 187° South 166 191 7,300  Level FlightAware ADS-B
Tue 05:32:00 PM 46.9929 -122.8990 186° South 166 191 7,300  Level FlightAware ADS-B
Tue 05:32:15 PM 46.9816 -122.9010 187° South 166 191 7,300  Level FlightAware ADS-B
Tue 05:32:26 PM 46.9733 -122.9020 185° South 166 191 7,300  Level FlightAware ADS-B
Tue 05:32:29 PM 46.9703 -122.9020 180° South 165 190 7,300  Level FlightAware ADS-B
Tue 05:32:35 PM 46.9660 -122.9020 180° South 164 189 7,300  Level FlightAware ADS-B
Tue 05:32:46 PM 46.9578 -122.9010 175° South 165 190 7,300  Level FlightAware ADS-B
Tue 05:33:03 PM 46.9450 -122.8970 168° South 164 189 7,300  Level FlightAware ADS-B
Tue 05:33:21 PM 46.9314 -122.8930 169° South 164 189 7,300  Level FlightAware ADS-B
Tue 05:33:36 PM 46.9201 -122.8900 170° South 164 189 7,300  Level FlightAware ADS-B
Tue 05:33:51 PM 46.9090 -122.8880 173° South 164 189 7,300  Level FlightAware ADS-B
Tue 05:34:06 PM 46.8978 -122.8850 170° South 164 189 7,300  Level FlightAware ADS-B
Tue 05:34:22 PM 46.8864 -122.8820 170° South 164 189 7,300  Level FlightAware ADS-B
Tue 05:34:37 PM 46.8750 -122.8780 167° South 164 189 7,300  Level FlightAware ADS-B
Tue 05:34:47 PM 46.8675 -122.8760 170° South 163 188 7,300  Level FlightAware ADS-B
Tue 05:34:54 PM 46.8622 -122.8750 173° South 163 188 7,300  Level FlightAware ADS-B
Tue 05:35:05 PM 46.8540 -122.8730 171° South 163 188 7,300  Level FlightAware ADS-B
Tue 05:35:15 PM 46.8465 -122.8710 170° South 163 188 7,300  Level FlightAware ADS-B
Tue 05:35:31 PM 46.8348 -122.8680 170° South 165 190 7,300  Level FlightAware ADS-B
Tue 05:35:46 PM 46.8236 -122.8650 170° South 164 189 7,300  Level FlightAware ADS-B
Tue 05:35:58 PM 46.8146 -122.8630 171° South 164 189 7,300  Level FlightAware ADS-B
Tue 05:36:13 PM 46.8035 -122.8600 170° South 164 189 7,300  Level FlightAware ADS-B
Tue 05:36:31 PM 46.7894 -122.8560 169° South 165 190 7,300  Level FlightAware ADS-B
Tue 05:36:48 PM 46.7773 -122.8530 170° South 165 190 7,300  Level FlightAware ADS-B
Tue 05:36:58 PM 46.7696 -122.8510 170° South 164 189 7,300  Level FlightAware ADS-B
Tue 05:37:07 PM 46.7626 -122.8500 174° South 165 190 7,300  Level FlightAware ADS-B
Tue 05:37:16 PM 46.7562 -122.8480 168° South 165 190 7,300  Level FlightAware ADS-B
Tue 05:37:31 PM 46.7446 -122.8450 170° South 165 190 7,300  Level FlightAware ADS-B
Tue 05:37:39 PM 46.7391 -122.8430 166° South 164 189 7,300  Level FlightAware ADS-B
Tue 05:37:50 PM 46.7306 -122.8410 171° South 163 188 7,300  Level FlightAware ADS-B
Tue 05:38:01 PM 46.7224 -122.8390 171° South 163 188 7,300  Level FlightAware ADS-B
Tue 05:38:16 PM 46.7113 -122.8360 170° South 164 189 7,300  Level FlightAware ADS-B
Tue 05:38:27 PM 46.7028 -122.8340 171° South 164 189 7,300  Level FlightAware ADS-B
Tue 05:38:43 PM 46.6913 -122.8310 170° South 163 188 7,300  Level FlightAware ADS-B
Tue 05:38:58 PM 46.6800 -122.8280 170° South 164 189 7,300  Level FlightAware ADS-B
Tue 05:39:17 PM 46.6658 -122.8250 172° South 164 189 7,300  Level FlightAware ADS-B
Tue 05:39:33 PM 46.6541 -122.8220 170° South 165 190 7,300  Level FlightAware ADS-B
Tue 05:40:09 PM 46.6272 -122.8150 170° South 164 189 7,300  Level FlightAware ADS-B
Tue 05:40:56 PM 46.5919 -122.8050 169° South 164 189 7,300  Level FlightAware ADS-B
Tue 05:41:11 PM 46.5803 -122.8020 170° South 165 190 7,300  Level FlightAware ADS-B
Tue 05:41:27 PM 46.5689 -122.7990 170° South 165 190 7,300  Level FlightAware ADS-B
Tue 05:41:42 PM 46.5573 -122.7960 170° South 166 191 7,300  Level FlightAware ADS-B
Tue 05:41:54 PM 46.5481 -122.7940 171° South 166 191 7,300  Level FlightAware ADS-B
Tue 05:42:07 PM 46.5385 -122.7910 168° South 167 192 7,300  Level FlightAware ADS-B
Tue 05:42:22 PM 46.5269 -122.7880 170° South 167 192 7,300  Level FlightAware ADS-B
Tue 05:42:38 PM 46.5149 -122.7850 170° South 167 192 7,300  Level FlightAware ADS-B
Tue 05:42:53 PM 46.5033 -122.7820 170° South 167 192 7,300  Level FlightAware ADS-B
Tue 05:43:08 PM 46.4919 -122.7790 170° South 168 193 7,300  Level FlightAware ADS-B
Tue 05:43:24 PM 46.4804 -122.7760 170° South 168 193 7,300  Level FlightAware ADS-B
Tue 05:43:39 PM 46.4686 -122.7730 170° South 168 193 7,300  Level FlightAware ADS-B
Tue 05:43:51 PM 46.4596 -122.7710 171° South 168 193 7,300  Level FlightAware ADS-B
Tue 05:44:02 PM 46.4506 -122.7690 171° South 168 193 7,300  Level FlightAware ADS-B
Tue 05:44:18 PM 46.4391 -122.7650 167° South 168 193 7,300  Level FlightAware ADS-B
Tue 05:44:33 PM 46.4275 -122.7620 170° South 169 194 7,300  Level FlightAware ADS-B
Tue 05:44:48 PM 46.4156 -122.7590 170° South 169 194 7,300  Level FlightAware ADS-B
Tue 05:44:54 PM 46.4110 -122.7580 171° South 169 194 7,300  Level FlightAware ADS-B
Tue 05:45:06 PM 46.4019 -122.7560 171° South 170 196 7,300 -300 Level FlightAware ADS-B
Tue 05:45:14 PM 46.3953 -122.7560 180° South 172 198 7,200 -353 Descending FlightAware ADS-B
Tue 05:45:23 PM 46.3885 -122.7550 174° South 175 201 7,200 -333 Level FlightAware ADS-B
Tue 05:45:32 PM 46.3811 -122.7550 180° South 177 204 7,100 -353 Descending FlightAware ADS-B
Tue 05:45:40 PM 46.3746 -122.7550 180° South 177 204 7,100 -522 Level FlightAware ADS-B
Tue 05:45:55 PM 46.3624 -122.7560 183° South 176 203 6,900 -581 Descending FlightAware ADS-B
Tue 05:46:11 PM 46.3495 -122.7570 183° South 175 201 6,800 -414 Descending FlightAware ADS-B
Tue 05:46:24 PM 46.3382 -122.7580 183° South 174 200 6,700 -522 Descending FlightAware ADS-B
Tue 05:46:34 PM 46.3306 -122.7590 185° South 174 200 6,600 -375 Descending FlightAware ADS-B
Tue 05:46:40 PM 46.3253 -122.7590 180° South 174 200 6,600 -286 Level FlightAware ADS-B
Tue 05:46:55 PM 46.3133 -122.7600 183° South 173 199 6,500 -581 Descending FlightAware ADS-B
Tue 05:47:11 PM 46.3010 -122.7600 180° South 173 199 6,300 -480 Descending FlightAware ADS-B
Tue 05:47:20 PM 46.2937 -122.7610 185° South 173 199 6,300 -353 Level FlightAware ADS-B
Tue 05:47:28 PM 46.2871 -122.7610 180° South 173 199 6,200 -375 Descending FlightAware ADS-B
Tue 05:47:36 PM 46.2806 -122.7620 186° South 173 199 6,200 -571 Level FlightAware ADS-B
Tue 05:47:49 PM 46.2700 -122.7620 180° South 173 199 6,000 -621 Descending FlightAware ADS-B
Tue 05:48:05 PM 46.2577 -122.7630 183° South 173 199 5,900 -387 Descending FlightAware ADS-B
Tue 05:48:20 PM 46.2456 -122.7640 183° South 173 199 5,800 -261 Descending FlightAware ADS-B
Tue 05:48:28 PM 46.2391 -122.7640 180° South 174 200 5,800 -522 Level FlightAware ADS-B
Tue 05:48:43 PM 46.2267 -122.7640 180° South 174 200 5,600 -581 Descending FlightAware ADS-B
Tue 05:48:59 PM 46.2143 -122.7640 180° South 174 200 5,500 -364 Descending FlightAware ADS-B
Tue 05:49:16 PM 46.2004 -122.7650 183° South 174 200 5,400 -364 Descending FlightAware ADS-B
Tue 05:49:32 PM 46.1875 -122.7650 180° South 174 200 5,300 -375 Descending FlightAware ADS-B
Tue 05:52:00 PM 46.1026 -122.6848 147° Southeast  Level FlightAware Approximate
Tue 05:53:00 PM 46.0615 -122.6824 161° South  Level Estimated
Tue 05:54:00 PM 46.0204 -122.6799 170° South  Level Estimated
Tue 05:55:00 PM 45.9817 -122.6596 160° South  Level FlightAware Approximate
Tue 05:56:00 PM 45.9431 -122.6393 160° South  Level FlightAware Approximate
Tue 05:57:00 PM 45.9020 -122.6415 172° South  Level Estimated
Tue 05:58:00 PM 45.8620 -122.6277 166° South  Level FlightAware Approximate
Tue 05:59:00 PM 45.8220 -122.6139 166° South  Level FlightAware Approximate
Tue 06:00:00 PM 45.7820 -122.6001 166° South  Level FlightAware Approximate
Tue 06:01:00 PM 45.7420 -122.6141 205° Southwest  Level Estimated
Tue 06:02:00 PM 45.7009 -122.6159 182° South  Level FlightAware Approximate
Tue 06:03:00 PM 45.6564 -122.6301 199° South  Level FlightAware Approximate
Tue 06:04:00 PM 45.6175 -122.6496 199° South  Level FlightAware Approximate
Tue 06:05:00 PM 45.6167 -122.6500 199° South  Level FlightAware Approximate
Tue 06:06:00 PM 45.6204 -122.6565 199° South  Level Estimated
Tue 06:07:00 PM 45.6167 -122.6500 199° South  Level FlightAware Approximate
Tue 06:08:00 PM 45.6204 -122.6565 199° South  Level Estimated
Tue 06:09:00 PM 45.6167 -122.6500 199° South  Level FlightAware Approximate
Tue 06:10:00 PM 45.6204 -122.6565 199° South  Level Estimated
Tue 06:11:00 PM 45.6167 -122.6500 199° South  Level FlightAware Approximate
Tue 06:12:00 PM 45.6204 -122.6565 199° South  Level Estimated
Tue 06:13:00 PM 45.6167 -122.6500 199° South  Level FlightAware Approximate
Tue 06:14:00 PM 45.6204 -122.6565 199° South  Level Estimated
Tue 06:15:00 PM 45.6167 -122.6500 199° South  Level FlightAware Approximate
Tue 06:16:00 PM 45.6204 -122.6565 199° South  Level Estimated
Tue 06:17:00 PM 45.6167 -122.6500 199° South  Level FlightAware Approximate
Tue 06:18:00 PM 45.6204 -122.6565 199° South  Level Estimated
Tue 06:19:00 PM 45.6167 -122.6500 199° South  Level FlightAware Approximate
Tue 06:20:00 PM 45.6204 -122.6565 199° South  Level Estimated
Tue 06:21:00 PM 45.6167 -122.6500 199° South  Level FlightAware Approximate
Tue 06:22:00 PM 45.6204 -122.6565 199° South  Level Estimated
Tue 06:23:00 PM 45.6167 -122.6500 199° South  Level FlightAware Approximate
Tue 06:24:00 PM 45.6204 -122.6565 199° South  Level Estimated
Tue 06:25:00 PM 45.6167 -122.6500 199° South  Level FlightAware Approximate
Tue 06:26:00 PM 45.6204 -122.6565 199° South  Level Estimated
Tue 06:27:00 PM 45.6167 -122.6500 199° South  Level FlightAware Approximate
Tue 06:28:00 PM 45.6204 -122.6565 199° South  Level Estimated

Login

Don't have an account? Register now (free) for customized features, flight alerts, and more!